createdAt,value
2022-09-27T00:04:29.378Z,10.90
2022-09-27T00:09:31.029Z,10.85
2022-09-27T00:14:32.405Z,10.96
2022-09-27T00:19:34.116Z,11.08
2022-09-27T00:24:35.464Z,11.05
2022-09-27T00:29:37.638Z,10.99
2022-09-27T00:34:39.414Z,11.01
2022-09-27T00:39:40.737Z,10.98
2022-09-27T00:44:42.011Z,11.05
2022-09-27T00:49:53.513Z,11.02
2022-09-27T00:55:04.906Z,11.00
2022-09-27T01:00:12.114Z,10.94
2022-09-27T01:05:15.470Z,11.03
2022-09-27T01:10:18.961Z,11.11
2022-09-27T01:15:28.991Z,11.02
2022-09-27T01:21:05.753Z,11.19
2022-09-27T01:26:16.743Z,11.23
2022-09-27T01:31:37.133Z,11.17
2022-09-27T01:37:01.124Z,11.15
2022-09-27T01:42:37.627Z,10.99
2022-09-27T01:47:45.610Z,11.01
2022-09-27T01:53:04.014Z,10.84
2022-09-27T01:58:14.780Z,10.89
2022-09-27T02:03:28.387Z,10.85
2022-09-27T02:08:35.071Z,10.89
2022-09-27T02:13:53.276Z,10.92
2022-09-27T02:19:11.188Z,10.88
2022-09-27T02:24:20.368Z,10.87
2022-09-27T02:29:34.346Z,10.93
2022-09-27T02:34:37.948Z,11.00
2022-09-27T02:39:39.335Z,11.08
2022-09-27T02:44:41.802Z,11.15
2022-09-27T02:49:54.962Z,11.09
2022-09-27T02:55:33.894Z,11.07
2022-09-27T03:00:55.109Z,11.02
2022-09-27T03:06:11.505Z,11.09
2022-09-27T03:11:13.022Z,11.07
2022-09-27T03:16:15.991Z,11.06
2022-09-27T03:21:17.267Z,11.10
2022-09-27T03:26:18.617Z,11.14
2022-09-27T03:31:20.015Z,11.17
2022-09-27T03:36:21.370Z,11.11
2022-09-27T03:41:22.693Z,11.09
2022-09-27T03:46:24.056Z,11.09
2022-09-27T03:51:25.341Z,11.06
2022-09-27T03:56:26.767Z,10.98
2022-09-27T04:01:28.739Z,10.91
2022-09-27T04:06:30.811Z,11.05
2022-09-27T04:11:32.125Z,10.93
2022-09-27T04:16:33.718Z,11.00
2022-09-27T04:21:35.260Z,10.87
2022-09-27T04:26:37.069Z,10.86
2022-09-27T04:31:38.385Z,10.78
2022-09-27T04:36:39.770Z,11.01
2022-09-27T04:41:41.073Z,11.01
2022-09-27T04:46:42.424Z,10.99
2022-09-27T04:51:43.751Z,10.79
2022-09-27T04:56:45.065Z,10.82
2022-09-27T05:01:46.962Z,10.79
2022-09-27T05:06:48.285Z,10.75
2022-09-27T05:11:49.620Z,10.74
2022-09-27T05:16:50.985Z,10.68
2022-09-27T05:21:52.442Z,10.76
2022-09-27T05:26:54.459Z,10.74
2022-09-27T05:31:55.764Z,10.74
2022-09-27T05:36:57.116Z,10.68
2022-09-27T05:41:58.609Z,10.72
2022-09-27T05:47:04.226Z,10.75
2022-09-27T05:52:06.142Z,10.86
2022-09-27T05:57:08.068Z,10.75
2022-09-27T06:02:12.487Z,10.60
2022-09-27T06:07:13.890Z,10.71
2022-09-27T06:12:15.237Z,10.72
2022-09-27T06:17:16.529Z,10.97
2022-09-27T06:22:17.880Z,11.11
2022-09-27T06:27:19.260Z,11.12
2022-09-27T06:32:20.633Z,11.01
2022-09-27T06:37:26.885Z,11.12
2022-09-27T06:42:29.767Z,11.24
2022-09-27T06:47:35.758Z,11.23
2022-09-27T06:52:37.075Z,11.31
2022-09-27T06:57:57.063Z,11.40
2022-09-27T07:03:02.055Z,11.45
2022-09-27T07:08:04.693Z,11.47
2022-09-27T07:13:08.294Z,11.48
2022-09-27T07:18:09.666Z,11.42
2022-09-27T07:23:12.105Z,11.41
2022-09-27T07:28:21.976Z,11.58
2022-09-27T07:33:23.730Z,11.56
2022-09-27T07:38:25.392Z,11.56
2022-09-27T07:43:26.835Z,11.56
2022-09-27T07:48:28.288Z,11.58
2022-09-27T07:53:29.723Z,11.70
2022-09-27T07:58:32.238Z,11.87
2022-09-27T08:03:34.887Z,12.12
2022-09-27T08:08:36.940Z,12.40
2022-09-27T08:13:39.136Z,12.70
2022-09-27T08:18:40.583Z,13.16
2022-09-27T08:23:42.705Z,13.16
2022-09-27T08:28:44.084Z,12.95
2022-09-27T08:33:51.762Z,12.74
2022-09-27T08:38:57.578Z,13.05
2022-09-27T08:44:27.469Z,13.39
2022-09-27T08:49:53.993Z,13.59
2022-09-27T08:54:58.113Z,13.46
2022-09-27T08:59:59.365Z,13.46
2022-09-27T09:05:07.846Z,13.38
2022-09-27T09:10:49.398Z,13.67
2022-09-27T09:16:07.905Z,13.77
2022-09-27T09:21:22.839Z,13.90
2022-09-27T09:26:38.636Z,14.14
2022-09-27T09:32:22.595Z,14.52
2022-09-27T09:37:35.101Z,15.18
2022-09-27T09:42:47.561Z,14.84
2022-09-27T09:48:02.127Z,15.28
2022-09-27T09:53:26.693Z,14.85
2022-09-27T09:58:57.354Z,13.96
2022-09-27T10:03:58.673Z,13.72
2022-09-27T10:09:00.220Z,14.15
2022-09-27T10:14:01.651Z,16.06
2022-09-27T10:19:05.500Z,16.66
2022-09-27T10:24:18.233Z,17.56
2022-09-27T10:29:20.222Z,17.92
2022-09-27T10:34:32.711Z,18.54
2022-09-27T10:39:35.357Z,17.88
2022-09-27T10:44:36.742Z,18.62
2022-09-27T10:49:42.191Z,17.42
2022-09-27T10:54:54.393Z,16.18
2022-09-27T11:00:08.327Z,15.25
2022-09-27T11:05:14.768Z,14.92
2022-09-27T11:10:37.370Z,15.88
2022-09-27T11:15:52.748Z,16.16
2022-09-27T11:21:09.176Z,19.07
2022-09-27T11:26:35.485Z,16.90
2022-09-27T11:32:02.791Z,15.88
2022-09-27T11:37:29.399Z,15.40
2022-09-27T11:42:36.801Z,17.33
2022-09-27T11:47:50.571Z,16.42
2022-09-27T11:53:18.598Z,16.10
2022-09-27T11:58:37.061Z,16.15
2022-09-27T12:03:56.391Z,16.96
2022-09-27T12:09:09.105Z,16.99
2022-09-27T12:14:25.844Z,18.14
2022-09-27T12:19:42.677Z,24.22
2022-09-27T12:24:45.525Z,29.26
2022-09-27T12:29:48.848Z,30.98
2022-09-27T12:35:00.078Z,29.88
2022-09-27T12:40:19.030Z,27.56
2022-09-27T12:45:36.605Z,25.35
2022-09-27T12:50:45.183Z,24.52
2022-09-27T12:56:14.079Z,21.36
2022-09-27T13:01:34.218Z,22.38
2022-09-27T13:07:13.031Z,22.35
2022-09-27T13:12:26.148Z,19.88
2022-09-27T13:17:43.314Z,17.64
2022-09-27T13:22:44.977Z,16.72
2022-09-27T13:27:46.329Z,16.51
2022-09-27T13:33:09.321Z,17.15
2022-09-27T13:38:24.215Z,17.14
2022-09-27T13:43:44.278Z,16.37
2022-09-27T13:48:59.519Z,16.02
2022-09-27T13:54:10.377Z,15.59
2022-09-27T13:59:16.680Z,15.36
2022-09-27T14:04:24.156Z,15.33
2022-09-27T14:09:27.760Z,15.12
2022-09-27T14:14:32.948Z,15.13
2022-09-27T14:19:40.950Z,15.04
2022-09-27T14:24:42.182Z,15.22
2022-09-27T14:29:53.444Z,15.45
2022-09-27T14:35:27.269Z,15.36
2022-09-27T14:40:29.215Z,15.31
2022-09-27T14:45:36.133Z,15.28
2022-09-27T14:50:37.482Z,15.33
2022-09-27T14:55:39.587Z,15.16
2022-09-27T15:00:46.788Z,15.14
2022-09-27T15:05:48.312Z,14.91
2022-09-27T15:10:49.739Z,14.70
2022-09-27T15:15:52.816Z,14.36
2022-09-27T15:20:54.476Z,14.18
2022-09-27T15:26:29.792Z,13.93
2022-09-27T15:31:33.371Z,13.88
2022-09-27T15:36:55.760Z,13.81
2022-09-27T15:42:03.859Z,13.56
2022-09-27T15:47:05.353Z,13.27
2022-09-27T15:52:07.704Z,12.87
2022-09-27T15:57:12.270Z,12.77
2022-09-27T16:02:17.194Z,12.88
2022-09-27T16:07:18.625Z,13.00
2022-09-27T16:12:19.941Z,12.73
2022-09-27T16:17:21.453Z,12.52
2022-09-27T16:22:24.414Z,12.31
2022-09-27T16:27:27.384Z,12.03
2022-09-27T16:32:29.978Z,11.84
2022-09-27T16:37:31.309Z,11.87
2022-09-27T16:42:32.633Z,11.80
2022-09-27T16:47:35.008Z,11.96
2022-09-27T16:52:36.269Z,11.96
2022-09-27T16:57:38.140Z,12.01
2022-09-27T17:02:40.186Z,11.94
2022-09-27T17:07:42.446Z,11.82
2022-09-27T17:12:43.760Z,11.89
2022-09-27T17:17:48.817Z,11.83
2022-09-27T17:22:50.211Z,11.95
2022-09-27T17:27:51.530Z,12.17
2022-09-27T17:32:53.015Z,12.09
2022-09-27T17:37:54.408Z,12.24
2022-09-27T17:42:56.311Z,12.24
2022-09-27T17:48:16.382Z,12.19
2022-09-27T17:53:17.860Z,12.29
2022-09-27T17:58:19.525Z,12.37
2022-09-27T18:03:21.427Z,12.40
2022-09-27T18:08:22.661Z,12.12
2022-09-27T18:13:24.070Z,11.99
2022-09-27T18:18:27.684Z,11.92
2022-09-27T18:23:30.569Z,11.88
2022-09-27T18:28:31.844Z,11.78
2022-09-27T18:33:34.167Z,11.78
2022-09-27T18:38:35.799Z,11.82
2022-09-27T18:43:39.046Z,11.88
2022-09-27T18:48:41.080Z,11.96
2022-09-27T18:53:43.759Z,11.98
2022-09-27T18:58:45.388Z,11.95
2022-09-27T19:03:47.329Z,12.03
2022-09-27T19:08:55.753Z,11.82
2022-09-27T19:13:57.924Z,11.57
2022-09-27T19:18:59.345Z,11.61
2022-09-27T19:24:01.025Z,11.41
2022-09-27T19:29:02.423Z,11.30
2022-09-27T19:34:04.272Z,11.18
2022-09-27T19:39:05.581Z,11.28
2022-09-27T19:44:06.857Z,11.19
2022-09-27T19:49:08.103Z,11.07
2022-09-27T19:54:10.481Z,10.98
2022-09-27T19:59:12.043Z,10.98
2022-09-27T20:04:13.694Z,11.03
2022-09-27T20:09:15.108Z,11.07
2022-09-27T20:14:16.380Z,11.08
2022-09-27T20:19:17.716Z,11.13
2022-09-27T20:24:20.388Z,10.95
2022-09-27T20:29:21.668Z,10.84
2022-09-27T20:34:23.601Z,10.90
2022-09-27T20:39:25.602Z,10.74
2022-09-27T20:44:27.040Z,10.60
2022-09-27T20:49:28.317Z,10.41
2022-09-27T20:54:29.619Z,10.41
2022-09-27T20:59:31.016Z,10.43
2022-09-27T21:04:32.263Z,10.38
2022-09-27T21:09:35.726Z,10.27
2022-09-27T21:14:36.973Z,10.14
2022-09-27T21:19:38.192Z,10.21
2022-09-27T21:24:39.480Z,10.04
2022-09-27T21:29:40.833Z,9.99
2022-09-27T21:34:42.102Z,9.85
2022-09-27T21:39:43.434Z,9.72
2022-09-27T21:44:44.932Z,9.69
2022-09-27T21:49:46.182Z,9.73
2022-09-27T21:54:47.433Z,9.81
2022-09-27T21:59:48.792Z,9.81
2022-09-27T22:04:50.458Z,9.65
2022-09-27T22:09:51.771Z,9.64
2022-09-27T22:14:53.058Z,9.68
2022-09-27T22:19:54.346Z,9.43
2022-09-27T22:24:55.633Z,9.30
2022-09-27T22:29:56.924Z,9.38
2022-09-27T22:34:58.251Z,9.46
2022-09-27T22:39:59.526Z,9.46
2022-09-27T22:45:00.790Z,9.57
2022-09-27T22:50:02.154Z,9.66
2022-09-27T22:55:03.519Z,9.74
2022-09-27T23:00:06.345Z,9.76
2022-09-27T23:05:08.111Z,9.73
2022-09-27T23:10:09.661Z,9.73
2022-09-27T23:15:13.840Z,9.86
2022-09-27T23:20:15.250Z,9.79
2022-09-27T23:25:16.573Z,9.81
2022-09-27T23:30:19.659Z,9.93
2022-09-27T23:35:21.648Z,9.98
2022-09-27T23:40:24.434Z,10.05
2022-09-27T23:45:27.599Z,10.00
2022-09-27T23:50:28.834Z,10.06
2022-09-27T23:55:30.100Z,10.02
